createdAt,value
2017-08-10T00:00:13.265Z,16.3
2017-08-10T00:01:20.741Z,16.3
2017-08-10T00:02:28.200Z,16.3
2017-08-10T00:03:35.684Z,16.4
2017-08-10T00:04:43.165Z,16.5
2017-08-10T00:05:50.648Z,16.5
2017-08-10T00:06:58.358Z,16.5
2017-08-10T00:08:06.138Z,16.5
2017-08-10T00:09:13.299Z,16.5
2017-08-10T00:10:20.454Z,16.5
2017-08-10T00:11:27.948Z,16.6
2017-08-10T00:12:35.098Z,16.5
2017-08-10T00:13:42.879Z,16.5
2017-08-10T00:14:50.035Z,16.5
2017-08-10T00:15:57.517Z,16.5
2017-08-10T00:17:05.001Z,16.4
2017-08-10T00:18:12.482Z,16.3
2017-08-10T00:19:20.263Z,16.1
2017-08-10T00:20:27.742Z,16.1
2017-08-10T00:21:35.219Z,16
2017-08-10T00:22:42.375Z,16.1
2017-08-10T00:23:49.859Z,16
2017-08-10T00:24:57.319Z,16
2017-08-10T00:26:04.797Z,16.1
2017-08-10T00:27:12.296Z,16.1
2017-08-10T00:28:19.776Z,16.2
2017-08-10T00:29:27.260Z,16.2
2017-08-10T00:30:34.759Z,16.2
2017-08-10T00:31:42.241Z,16.3
2017-08-10T00:32:49.718Z,16.3
2017-08-10T00:33:57.201Z,16.4
2017-08-10T00:35:04.680Z,16.4
2017-08-10T00:36:12.465Z,16.4
2017-08-10T00:37:19.954Z,16.4
2017-08-10T00:38:26.783Z,16.4
2017-08-10T00:39:34.266Z,16.3
2017-08-10T00:40:41.415Z,16.2
2017-08-10T00:41:49.194Z,16.2
2017-08-10T00:42:56.380Z,16.1
2017-08-10T00:44:03.861Z,16
2017-08-10T00:45:11.362Z,16
2017-08-10T00:46:18.854Z,16
2017-08-10T00:47:26.649Z,16
2017-08-10T00:48:34.127Z,15.9
2017-08-10T00:49:41.608Z,15.9
2017-08-10T00:50:49.326Z,15.9
2017-08-10T00:51:56.794Z,15.9
2017-08-10T00:53:04.573Z,15.9
2017-08-10T00:54:12.053Z,16
2017-08-10T00:55:19.534Z,16.1
2017-08-10T00:56:27.012Z,16
2017-08-10T00:57:34.484Z,16
2017-08-10T00:58:42.260Z,16
2017-08-10T00:59:49.740Z,16.1
2017-08-10T01:00:57.221Z,16
2017-08-10T01:02:04.701Z,16.1
2017-08-10T01:03:12.184Z,16.1
2017-08-10T01:04:20.018Z,16.1
2017-08-10T01:05:27.489Z,16.1
2017-08-10T01:06:34.966Z,16
2017-08-10T01:07:42.668Z,16
2017-08-10T01:08:50.150Z,16
2017-08-10T01:09:57.648Z,16.1
2017-08-10T01:11:04.477Z,16.1
2017-08-10T01:12:11.953Z,16.1
2017-08-10T01:13:19.434Z,16.1
2017-08-10T01:14:26.581Z,16
2017-08-10T01:15:34.386Z,16
2017-08-10T01:16:41.862Z,16
2017-08-10T01:17:49.010Z,16.1
2017-08-10T01:18:56.486Z,16.1
2017-08-10T01:20:03.971Z,16.1
2017-08-10T01:21:11.754Z,16.2
2017-08-10T01:22:19.432Z,16.2
2017-08-10T01:23:26.937Z,16.2
2017-08-10T01:24:34.427Z,16.3
2017-08-10T01:25:41.572Z,16.3
2017-08-10T01:26:49.355Z,16.3
2017-08-10T01:27:56.840Z,16.3
2017-08-10T01:29:04.316Z,16.3
2017-08-10T01:30:11.468Z,16.3
2017-08-10T01:31:18.950Z,16.3
2017-08-10T01:32:26.723Z,16.3
2017-08-10T01:33:33.875Z,16.3
2017-08-10T01:34:41.354Z,16.2
2017-08-10T01:35:48.829Z,16.2
2017-08-10T01:36:56.324Z,16.1
2017-08-10T01:38:04.111Z,16.1
2017-08-10T01:39:12.063Z,16.1
2017-08-10T01:40:19.539Z,16.1
2017-08-10T01:41:27.021Z,16
2017-08-10T01:42:34.503Z,15.9
2017-08-10T01:43:42.286Z,15.9
2017-08-10T01:44:49.800Z,15.8
2017-08-10T01:45:56.978Z,15.8
2017-08-10T01:47:04.455Z,15.8
2017-08-10T01:48:11.939Z,15.9
2017-08-10T01:49:19.719Z,15.9
2017-08-10T01:50:27.204Z,16
2017-08-10T01:51:36.258Z,16
2017-08-10T01:52:43.740Z,16
2017-08-10T01:53:50.554Z,16
2017-08-10T01:54:58.341Z,16
2017-08-10T01:56:05.830Z,16
2017-08-10T01:57:12.978Z,16
2017-08-10T01:58:20.459Z,15.9
2017-08-10T01:59:27.934Z,16
2017-08-10T02:00:35.711Z,16
2017-08-10T02:01:43.207Z,16
2017-08-10T02:02:50.685Z,16
2017-08-10T02:03:57.836Z,15.9
2017-08-10T02:05:06.283Z,15.8
2017-08-10T02:06:14.073Z,15.7
2017-08-10T02:07:21.238Z,15.7
2017-08-10T02:08:28.724Z,15.8
2017-08-10T02:09:35.874Z,15.8
2017-08-10T02:10:43.359Z,15.8
2017-08-10T02:11:51.139Z,15.9
2017-08-10T02:12:58.284Z,15.9
2017-08-10T02:14:05.770Z,15.9
2017-08-10T02:15:13.258Z,15.9
2017-08-10T02:16:20.407Z,15.9
2017-08-10T02:17:28.189Z,15.8
2017-08-10T02:18:35.719Z,15.8
2017-08-10T02:19:42.877Z,15.8
2017-08-10T02:20:50.356Z,15.7
2017-08-10T02:21:57.849Z,15.7
2017-08-10T02:23:04.957Z,15.8
2017-08-10T02:24:12.436Z,15.8
2017-08-10T02:25:19.918Z,15.8
2017-08-10T02:26:27.409Z,15.8
2017-08-10T02:27:34.229Z,15.7
2017-08-10T02:28:42.027Z,15.7
2017-08-10T02:29:49.515Z,15.7
2017-08-10T02:30:56.692Z,15.7
2017-08-10T02:32:04.166Z,15.8
2017-08-10T02:33:11.312Z,15.7
2017-08-10T02:34:19.092Z,15.8
2017-08-10T02:35:26.572Z,15.8
2017-08-10T02:36:34.062Z,15.7
2017-08-10T02:37:41.544Z,15.7
2017-08-10T02:38:49.026Z,15.7
2017-08-10T02:39:56.504Z,15.8
2017-08-10T02:41:03.975Z,15.8
2017-08-10T02:42:11.486Z,15.8
2017-08-10T02:43:19.001Z,15.8
2017-08-10T02:44:26.477Z,15.8
2017-08-10T02:45:34.263Z,15.8
2017-08-10T02:46:41.745Z,15.7
2017-08-10T02:47:49.226Z,15.7
2017-08-10T02:48:56.377Z,15.6
2017-08-10T02:50:03.861Z,15.5
2017-08-10T02:51:11.309Z,15.5
2017-08-10T02:52:18.793Z,15.5
2017-08-10T02:53:26.275Z,15.5
2017-08-10T02:54:33.748Z,15.6
2017-08-10T02:55:41.229Z,15.6
2017-08-10T02:56:49.269Z,15.6
2017-08-10T02:57:56.755Z,15.6
2017-08-10T02:59:04.240Z,15.6
2017-08-10T03:00:11.722Z,15.5
2017-08-10T03:01:18.874Z,15.5
2017-08-10T03:02:26.652Z,15.5
2017-08-10T03:03:34.138Z,15.5
2017-08-10T03:04:41.612Z,15.5
2017-08-10T03:05:49.088Z,15.5
2017-08-10T03:06:56.569Z,15.5
2017-08-10T03:08:04.355Z,15.4
2017-08-10T03:09:11.834Z,15.4
2017-08-10T03:10:19.311Z,15.4
2017-08-10T03:11:26.797Z,15.4
2017-08-10T03:12:34.279Z,15.4
2017-08-10T03:13:42.120Z,15.4
2017-08-10T03:14:49.623Z,15.5
2017-08-10T03:15:57.139Z,15.5
2017-08-10T03:17:04.618Z,15.5
2017-08-10T03:18:11.764Z,15.5
2017-08-10T03:19:19.241Z,15.5
2017-08-10T03:20:26.384Z,15.4
2017-08-10T03:21:33.867Z,15.5
2017-08-10T03:22:41.342Z,15.5
2017-08-10T03:23:48.494Z,15.5
2017-08-10T03:24:56.276Z,15.5
2017-08-10T03:26:03.761Z,15.5
2017-08-10T03:27:11.242Z,15.5
2017-08-10T03:28:18.716Z,15.5
2017-08-10T03:29:25.863Z,15.5
2017-08-10T03:30:33.367Z,15.5
2017-08-10T03:31:40.859Z,15.5
2017-08-10T03:32:48.357Z,15.5
2017-08-10T03:33:55.840Z,15.6
2017-08-10T03:35:02.999Z,15.5
2017-08-10T03:36:10.476Z,15.5
2017-08-10T03:37:18.263Z,15.5
2017-08-10T03:38:25.411Z,15.5
2017-08-10T03:39:32.882Z,15.5
2017-08-10T03:40:40.025Z,15.5
2017-08-10T03:41:47.513Z,15.5
2017-08-10T03:42:55.313Z,15.5
2017-08-10T03:44:02.460Z,15.5
2017-08-10T03:45:09.287Z,15.5
2017-08-10T03:46:16.769Z,15.5
2017-08-10T03:47:24.249Z,15.5
2017-08-10T03:48:32.210Z,15.4
2017-08-10T03:49:39.353Z,15.4
2017-08-10T03:50:46.828Z,15.4
2017-08-10T03:51:54.307Z,15.3
2017-08-10T03:53:01.466Z,15.3
2017-08-10T03:54:08.944Z,15.3
2017-08-10T03:55:16.423Z,15.4
2017-08-10T03:56:23.904Z,15.4
2017-08-10T03:57:31.387Z,15.5
2017-08-10T03:58:38.538Z,15.5
2017-08-10T03:59:46.315Z,15.5
2017-08-10T04:00:53.791Z,15.6
2017-08-10T04:02:01.272Z,15.6
2017-08-10T04:03:08.755Z,15.6
2017-08-10T04:04:16.234Z,15.6
2017-08-10T04:05:24.013Z,15.6
2017-08-10T04:06:31.171Z,15.6
2017-08-10T04:07:38.650Z,15.5
2017-08-10T04:08:46.156Z,15.5
2017-08-10T04:09:53.635Z,15.5
2017-08-10T04:11:01.101Z,15.6
2017-08-10T04:12:08.577Z,15.5
2017-08-10T04:13:16.064Z,15.6
2017-08-10T04:14:23.551Z,15.6
2017-08-10T04:15:31.031Z,15.6
2017-08-10T04:16:38.534Z,15.6
2017-08-10T04:17:46.000Z,15.6
2017-08-10T04:18:53.487Z,15.5
2017-08-10T04:20:00.637Z,15.5
2017-08-10T04:21:08.124Z,15.5
2017-08-10T04:22:15.951Z,15.5
2017-08-10T04:23:23.444Z,15.4
2017-08-10T04:24:30.912Z,15.4
2017-08-10T04:25:38.402Z,15.3
2017-08-10T04:26:45.874Z,15.4
2017-08-10T04:27:53.704Z,15.4
2017-08-10T04:29:00.858Z,15.5
2017-08-10T04:30:08.336Z,15.5
2017-08-10T04:31:15.818Z,15.5
2017-08-10T04:32:23.494Z,15.6
2017-08-10T04:33:30.980Z,15.6
2017-08-10T04:34:38.468Z,15.7
2017-08-10T04:35:45.974Z,15.6
2017-08-10T04:36:53.752Z,15.6
2017-08-10T04:38:01.250Z,15.6
2017-08-10T04:39:08.731Z,15.5
2017-08-10T04:40:16.228Z,15.5
2017-08-10T04:41:23.711Z,15.4
2017-08-10T04:42:31.491Z,15.4
2017-08-10T04:43:38.679Z,15.4
2017-08-10T04:44:46.167Z,15.5
2017-08-10T04:45:53.655Z,15.5
2017-08-10T04:47:00.804Z,15.5
2017-08-10T04:48:08.308Z,15.5
2017-08-10T04:49:15.781Z,15.5
2017-08-10T04:50:23.259Z,15.5
2017-08-10T04:51:30.964Z,15.5
2017-08-10T04:52:38.673Z,15.6
2017-08-10T04:53:46.459Z,15.6
2017-08-10T04:54:53.967Z,15.6
2017-08-10T04:56:01.447Z,15.6
2017-08-10T04:57:08.924Z,15.6
2017-08-10T04:58:16.075Z,15.6
2017-08-10T04:59:23.553Z,15.6
2017-08-10T05:00:31.040Z,15.7
2017-08-10T05:01:38.190Z,15.7
2017-08-10T05:02:45.685Z,15.7
2017-08-10T05:03:53.712Z,15.7
2017-08-10T05:05:01.411Z,15.7
2017-08-10T05:06:08.898Z,15.7
2017-08-10T05:07:16.378Z,15.7
2017-08-10T05:08:23.861Z,15.7
2017-08-10T05:09:31.669Z,15.8
2017-08-10T05:10:39.150Z,15.8
2017-08-10T05:11:46.629Z,15.8
2017-08-10T05:12:53.819Z,15.8
2017-08-10T05:14:01.304Z,15.8
2017-08-10T05:15:09.091Z,15.9
2017-08-10T05:16:16.571Z,15.9
2017-08-10T05:17:23.734Z,15.9
2017-08-10T05:18:31.207Z,15.8
2017-08-10T05:19:38.694Z,15.9
2017-08-10T05:20:46.165Z,15.9
2017-08-10T05:21:53.644Z,15.9
2017-08-10T05:23:01.122Z,15.9
2017-08-10T05:24:08.608Z,15.9
2017-08-10T05:25:16.088Z,15.9
2017-08-10T05:26:23.866Z,16
2017-08-10T05:27:31.345Z,16.1
2017-08-10T05:28:38.823Z,16.1
2017-08-10T05:29:45.969Z,16.2
2017-08-10T05:30:53.126Z,16.2
2017-08-10T05:32:00.959Z,16.3
2017-08-10T05:33:08.116Z,16.3
2017-08-10T05:34:15.596Z,16.2
2017-08-10T05:35:23.077Z,16.2
2017-08-10T05:36:30.559Z,16.2
2017-08-10T05:37:38.395Z,16.1
2017-08-10T05:38:45.879Z,16.1
2017-08-10T05:39:53.040Z,16.2
2017-08-10T05:41:00.527Z,16.2
2017-08-10T05:42:08.020Z,16.3
2017-08-10T05:43:15.511Z,16.4
2017-08-10T05:44:23.011Z,16.4
2017-08-10T05:45:30.800Z,16.4
2017-08-10T05:46:38.284Z,16.4
2017-08-10T05:47:45.770Z,16.4
2017-08-10T05:48:53.245Z,16.3
2017-08-10T05:50:00.722Z,16.3
2017-08-10T05:51:08.178Z,16.3
2017-08-10T05:52:15.660Z,16.3
2017-08-10T05:53:23.145Z,16.4
2017-08-10T05:54:30.627Z,16.4
2017-08-10T05:55:38.107Z,16.4
2017-08-10T05:56:45.885Z,16.5
2017-08-10T05:57:53.368Z,16.6
2017-08-10T05:59:00.845Z,16.6
2017-08-10T06:00:08.335Z,16.6
2017-08-10T06:01:15.816Z,16.6
2017-08-10T06:02:23.314Z,16.6
2017-08-10T06:03:30.490Z,16.7
2017-08-10T06:04:37.973Z,16.7
2017-08-10T06:05:45.461Z,16.7
2017-08-10T06:06:52.947Z,16.8
2017-08-10T06:08:00.722Z,16.8
2017-08-10T06:09:08.204Z,16.9
2017-08-10T06:10:15.684Z,16.9
2017-08-10T06:11:23.170Z,16.9
2017-08-10T06:12:30.657Z,16.9
2017-08-10T06:13:38.159Z,16.9
2017-08-10T06:14:45.328Z,16.9
2017-08-10T06:15:52.815Z,17
2017-08-10T06:17:00.289Z,17
2017-08-10T06:18:07.714Z,17
2017-08-10T06:19:15.503Z,16.9
2017-08-10T06:20:22.843Z,16.9
2017-08-10T06:21:30.323Z,16.8
2017-08-10T06:22:37.800Z,16.8
2017-08-10T06:23:45.285Z,16.8
2017-08-10T06:24:52.775Z,16.8
2017-08-10T06:26:00.249Z,16.9
2017-08-10T06:27:08.033Z,16.9
2017-08-10T06:28:15.526Z,17
2017-08-10T06:29:22.999Z,17.1
2017-08-10T06:30:30.475Z,17.1
2017-08-10T06:31:37.956Z,17
2017-08-10T06:32:45.412Z,17
2017-08-10T06:33:53.006Z,17
2017-08-10T06:35:00.486Z,17
2017-08-10T06:36:07.970Z,17.1
2017-08-10T06:37:15.454Z,17
2017-08-10T06:38:22.907Z,17
2017-08-10T06:39:30.389Z,17.1
2017-08-10T06:40:37.872Z,17
2017-08-10T06:41:45.365Z,17
2017-08-10T06:42:52.843Z,17
2017-08-10T06:44:00.620Z,17
2017-08-10T06:45:08.103Z,17
2017-08-10T06:46:15.592Z,17
2017-08-10T06:47:23.070Z,17
2017-08-10T06:48:30.220Z,17
2017-08-10T06:49:37.700Z,17
2017-08-10T06:50:45.175Z,17
2017-08-10T06:51:52.322Z,17
2017-08-10T06:52:59.810Z,17
2017-08-10T06:54:07.648Z,17
2017-08-10T06:55:14.800Z,17
2017-08-10T06:56:22.287Z,17
2017-08-10T06:57:29.432Z,17
2017-08-10T06:58:36.909Z,17
2017-08-10T06:59:44.766Z,17
2017-08-10T07:00:52.239Z,17
2017-08-10T07:01:59.717Z,16.9
2017-08-10T07:03:07.202Z,16.8
2017-08-10T07:04:14.681Z,16.8
2017-08-10T07:05:22.515Z,16.8
2017-08-10T07:06:29.996Z,16.8
2017-08-10T07:07:37.471Z,16.8
2017-08-10T07:08:44.959Z,16.9
2017-08-10T07:09:52.450Z,16.9
2017-08-10T07:10:59.955Z,16.9
2017-08-10T07:12:07.434Z,16.9
2017-08-10T07:13:14.915Z,16.9
2017-08-10T07:14:22.397Z,16.8
2017-08-10T07:15:29.552Z,16.8
2017-08-10T07:16:37.327Z,16.9
2017-08-10T07:17:44.807Z,16.9
2017-08-10T07:18:52.286Z,16.9
2017-08-10T07:19:59.429Z,16.8
2017-08-10T07:21:06.910Z,16.8
2017-08-10T07:22:14.695Z,16.8
2017-08-10T07:23:22.173Z,16.8
2017-08-10T07:24:29.654Z,16.8
2017-08-10T07:25:36.801Z,16.8
2017-08-10T07:26:44.281Z,16.8
2017-08-10T07:27:52.063Z,16.8
2017-08-10T07:28:59.540Z,16.8
2017-08-10T07:30:07.044Z,16.9
2017-08-10T07:31:14.521Z,16.9
2017-08-10T07:32:22.004Z,16.9
2017-08-10T07:33:29.157Z,16.9
2017-08-10T07:34:36.646Z,17
2017-08-10T07:35:44.141Z,16.9
2017-08-10T07:36:51.922Z,16.9
2017-08-10T07:37:59.104Z,16.8
2017-08-10T07:39:06.582Z,16.8
2017-08-10T07:40:14.089Z,16.8
2017-08-10T07:41:21.566Z,16.8
2017-08-10T07:42:29.030Z,16.8
2017-08-10T07:43:36.171Z,16.9
2017-08-10T07:44:43.649Z,16.9
2017-08-10T07:45:51.127Z,16.9
2017-08-10T07:46:58.613Z,16.9
2017-08-10T07:48:06.070Z,16.9
2017-08-10T07:49:13.550Z,17
2017-08-10T07:50:21.229Z,17
2017-08-10T07:51:28.708Z,16.9
2017-08-10T07:52:36.189Z,16.8
2017-08-10T07:53:43.336Z,16.7
2017-08-10T07:54:50.824Z,16.7
2017-08-10T07:55:58.306Z,16.7
2017-08-10T07:57:05.455Z,16.8
2017-08-10T07:58:13.245Z,16.7
2017-08-10T07:59:20.734Z,16.7
2017-08-10T08:00:28.220Z,16.6
2017-08-10T08:01:35.364Z,16.7
2017-08-10T08:02:42.844Z,16.8
2017-08-10T08:03:50.293Z,16.7
2017-08-10T08:04:57.787Z,16.8
2017-08-10T08:06:05.275Z,16.8
2017-08-10T08:07:12.754Z,16.8
2017-08-10T08:08:20.244Z,16.7
2017-08-10T08:09:28.030Z,16.7
2017-08-10T08:10:35.519Z,16.7
2017-08-10T08:11:43.000Z,16.7
2017-08-10T08:12:50.470Z,16.8
2017-08-10T08:13:57.945Z,16.8
2017-08-10T08:15:05.725Z,16.9
2017-08-10T08:16:12.878Z,16.8
2017-08-10T08:17:20.377Z,16.8
2017-08-10T08:18:27.861Z,16.8
2017-08-10T08:19:34.684Z,16.9
2017-08-10T08:20:42.534Z,16.9
2017-08-10T08:21:50.009Z,16.8
2017-08-10T08:22:57.539Z,16.8
2017-08-10T08:24:05.016Z,16.7
2017-08-10T08:25:12.494Z,16.7
2017-08-10T08:26:20.274Z,16.7
2017-08-10T08:27:27.758Z,16.7
2017-08-10T08:28:35.234Z,16.7
2017-08-10T08:29:42.721Z,16.8
2017-08-10T08:30:50.211Z,16.8
2017-08-10T08:31:57.671Z,16.9
2017-08-10T08:33:05.158Z,16.9
2017-08-10T08:34:12.638Z,17
2017-08-10T08:35:20.123Z,16.9
2017-08-10T08:36:27.277Z,16.7
2017-08-10T08:37:35.057Z,16.7
2017-08-10T08:38:42.209Z,16.8
2017-08-10T08:39:49.682Z,16.8
2017-08-10T08:40:56.844Z,16.7
2017-08-10T08:42:04.326Z,16.8
2017-08-10T08:43:12.148Z,16.9
2017-08-10T08:44:19.636Z,16.9
2017-08-10T08:45:27.125Z,16.9
2017-08-10T08:46:34.614Z,16.8
2017-08-10T08:47:42.096Z,16.9
2017-08-10T08:48:49.932Z,17
2017-08-10T08:49:57.414Z,17.1
2017-08-10T08:51:04.896Z,17.2
2017-08-10T08:52:12.383Z,17.2
2017-08-10T08:53:19.542Z,17.3
2017-08-10T08:54:27.047Z,17.3
2017-08-10T08:55:34.530Z,17.4
2017-08-10T08:56:42.010Z,17.5
2017-08-10T08:57:49.505Z,17.5
2017-08-10T08:58:56.992Z,17.5
2017-08-10T09:00:05.086Z,17.5
2017-08-10T09:01:12.622Z,17.6
2017-08-10T09:02:20.110Z,17.7
2017-08-10T09:03:27.596Z,17.7
2017-08-10T09:04:35.073Z,17.7
2017-08-10T09:05:42.593Z,17.8
2017-08-10T09:06:50.077Z,17.9
2017-08-10T09:07:57.558Z,17.9
2017-08-10T09:09:05.043Z,17.9
2017-08-10T09:10:12.522Z,18
2017-08-10T09:11:20.356Z,18
2017-08-10T09:12:27.836Z,18.1
2017-08-10T09:13:35.311Z,18.1
2017-08-10T09:14:42.475Z,18.1
2017-08-10T09:15:49.608Z,18.3
2017-08-10T09:16:57.389Z,18.3
2017-08-10T09:18:04.539Z,18.4
2017-08-10T09:19:12.054Z,18.4
2017-08-10T09:20:19.537Z,18.3
2017-08-10T09:21:27.018Z,18.2
2017-08-10T09:22:34.814Z,18.2
2017-08-10T09:23:42.301Z,18.3
2017-08-10T09:24:49.779Z,18.4
2017-08-10T09:25:57.265Z,18.5
2017-08-10T09:27:04.744Z,18.6
2017-08-10T09:28:12.568Z,18.6
2017-08-10T09:29:20.050Z,18.5
2017-08-10T09:30:27.534Z,18.4
2017-08-10T09:31:35.006Z,18.3
2017-08-10T09:32:42.156Z,18.4
2017-08-10T09:33:49.934Z,18.4
2017-08-10T09:34:57.424Z,18.4
2017-08-10T09:36:04.571Z,18.4
2017-08-10T09:37:12.056Z,18.3
2017-08-10T09:38:19.539Z,18.3
2017-08-10T09:39:27.409Z,18.4
2017-08-10T09:40:34.915Z,18.3
2017-08-10T09:41:42.394Z,18.4
2017-08-10T09:42:49.883Z,18.5
2017-08-10T09:43:57.365Z,18.5
2017-08-10T09:45:05.147Z,18.5
2017-08-10T09:46:12.627Z,18.5
2017-08-10T09:47:20.117Z,18.5
2017-08-10T09:48:27.625Z,18.4
2017-08-10T09:49:35.109Z,18.5
2017-08-10T09:50:42.888Z,18.6
2017-08-10T09:51:50.365Z,18.6
2017-08-10T09:52:57.849Z,18.5
2017-08-10T09:54:05.000Z,18.6
2017-08-10T09:55:12.152Z,18.7
2017-08-10T09:56:19.934Z,18.6
2017-08-10T09:57:27.417Z,18.5
2017-08-10T09:58:34.901Z,18.4
2017-08-10T09:59:42.054Z,18.3
2017-08-10T10:00:49.559Z,18.2
2017-08-10T10:01:57.357Z,18.1
2017-08-10T10:03:04.515Z,18.1
2017-08-10T10:04:12.000Z,18
2017-08-10T10:05:19.479Z,17.9
2017-08-10T10:06:26.626Z,18
2017-08-10T10:07:34.077Z,18
2017-08-10T10:08:41.558Z,18
2017-08-10T10:09:49.039Z,17.9
2017-08-10T10:10:56.524Z,17.9
2017-08-10T10:12:04.004Z,17.8
2017-08-10T10:13:11.786Z,17.9
2017-08-10T10:14:18.939Z,17.8
2017-08-10T10:15:26.094Z,17.9
2017-08-10T10:16:33.253Z,18
2017-08-10T10:17:40.725Z,18
2017-08-10T10:18:48.516Z,18.1
2017-08-10T10:19:55.680Z,18.2
2017-08-10T10:21:02.846Z,18.3
2017-08-10T10:22:10.330Z,18.3
2017-08-10T10:23:17.821Z,18.3
2017-08-10T10:24:25.602Z,18.3
2017-08-10T10:25:33.085Z,18.3
2017-08-10T10:26:40.572Z,18.2
2017-08-10T10:27:47.722Z,18.1
2017-08-10T10:28:55.206Z,18
2017-08-10T10:30:02.989Z,17.9
2017-08-10T10:31:10.472Z,17.9
2017-08-10T10:32:17.621Z,17.9
2017-08-10T10:33:25.107Z,17.9
2017-08-10T10:34:32.599Z,17.8
2017-08-10T10:35:40.386Z,17.7
2017-08-10T10:36:47.889Z,17.7
2017-08-10T10:37:55.040Z,17.6
2017-08-10T10:39:02.556Z,17.7
2017-08-10T10:40:09.703Z,17.5
2017-08-10T10:41:17.493Z,17.6
2017-08-10T10:42:24.659Z,17.6
2017-08-10T10:43:32.139Z,17.5
2017-08-10T10:44:39.857Z,17.5
2017-08-10T10:45:47.330Z,17.4
2017-08-10T10:46:55.108Z,17.4
2017-08-10T10:48:02.595Z,17.4
2017-08-10T10:49:10.076Z,17.3
2017-08-10T10:50:17.560Z,17.3
2017-08-10T10:51:25.042Z,17.3
2017-08-10T10:52:33.041Z,17.4
2017-08-10T10:53:40.541Z,17.3
2017-08-10T10:54:48.043Z,17.3
2017-08-10T10:55:55.560Z,17.4
2017-08-10T10:57:03.056Z,17.5
2017-08-10T10:58:10.853Z,17.5
2017-08-10T10:59:18.338Z,17.5
2017-08-10T11:00:25.814Z,17.6
2017-08-10T11:01:33.297Z,17.7
2017-08-10T11:02:40.781Z,17.7
2017-08-10T11:03:48.617Z,17.7
2017-08-10T11:04:56.119Z,17.7
2017-08-10T11:06:03.590Z,17.6
2017-08-10T11:07:11.068Z,17.5
2017-08-10T11:08:18.217Z,17.4
2017-08-10T11:09:26.053Z,17.5
2017-08-10T11:10:33.533Z,17.6
2017-08-10T11:11:41.013Z,17.5
2017-08-10T11:12:48.497Z,17.5
2017-08-10T11:13:55.977Z,17.5
2017-08-10T11:15:03.761Z,17.6
2017-08-10T11:16:11.276Z,17.7
2017-08-10T11:17:18.758Z,17.7
2017-08-10T11:18:26.246Z,17.8
2017-08-10T11:19:33.721Z,17.7
2017-08-10T11:20:41.203Z,17.7
2017-08-10T11:21:48.701Z,17.8
2017-08-10T11:22:55.859Z,17.8
2017-08-10T11:24:03.018Z,17.8
2017-08-10T11:25:10.508Z,17.6
2017-08-10T11:26:18.336Z,17.6
2017-08-10T11:27:25.830Z,17.5
2017-08-10T11:28:33.312Z,17.6
2017-08-10T11:29:40.823Z,17.6
2017-08-10T11:30:48.312Z,17.5
2017-08-10T11:31:56.094Z,17.4
2017-08-10T11:33:03.581Z,17.3
2017-08-10T11:34:10.742Z,17.4
2017-08-10T11:35:18.228Z,17.5
2017-08-10T11:36:25.714Z,17.5
2017-08-10T11:37:33.182Z,17.6
2017-08-10T11:38:40.692Z,17.7
2017-08-10T11:39:48.175Z,17.6
2017-08-10T11:40:55.326Z,17.7
2017-08-10T11:42:02.485Z,17.8
2017-08-10T11:43:10.258Z,17.8
2017-08-10T11:44:17.907Z,17.7
2017-08-10T11:45:25.388Z,17.7
2017-08-10T11:46:32.871Z,17.6
2017-08-10T11:47:40.346Z,17.6
2017-08-10T11:48:48.129Z,17.7
2017-08-10T11:49:55.607Z,17.7
2017-08-10T11:51:03.090Z,17.8
2017-08-10T11:52:10.605Z,17.8
2017-08-10T11:53:32.670Z,17.9
2017-08-10T11:54:40.132Z,17.9
2017-08-10T11:55:47.616Z,17.9
2017-08-10T11:56:55.108Z,17.9
2017-08-10T11:58:02.596Z,17.8
2017-08-10T11:59:10.066Z,17.8
2017-08-10T12:00:17.550Z,17.8
2017-08-10T12:01:25.040Z,18
2017-08-10T12:02:32.822Z,18
2017-08-10T12:03:40.304Z,18
2017-08-10T12:04:47.785Z,17.8
2017-08-10T12:05:54.937Z,17.8
2017-08-10T12:07:02.420Z,17.9
2017-08-10T12:08:10.251Z,17.8
2017-08-10T12:09:17.733Z,17.7
2017-08-10T12:10:25.214Z,17.7
2017-08-10T12:11:32.693Z,17.8
2017-08-10T12:12:39.849Z,17.8
2017-08-10T12:13:47.346Z,17.8
2017-08-10T12:14:54.822Z,17.8
2017-08-10T12:16:02.305Z,17.9
2017-08-10T12:17:09.790Z,18
2017-08-10T12:18:16.957Z,18
2017-08-10T12:19:24.462Z,18
2017-08-10T12:20:31.956Z,18
2017-08-10T12:21:39.448Z,17.8
2017-08-10T12:22:46.930Z,17.7
2017-08-10T12:23:54.410Z,17.8
2017-08-10T12:25:01.893Z,17.7
2017-08-10T12:26:09.382Z,17.7
2017-08-10T12:27:16.868Z,17.6
2017-08-10T12:28:24.368Z,17.7
2017-08-10T12:29:32.151Z,17.8
2017-08-10T12:30:39.642Z,17.9
2017-08-10T12:31:46.784Z,18
2017-08-10T12:32:54.267Z,18.1
2017-08-10T12:34:01.427Z,18.1
2017-08-10T12:35:09.260Z,18.2
2017-08-10T12:36:16.740Z,18.2
2017-08-10T12:37:23.894Z,18.2
2017-08-10T12:38:31.382Z,18.2
2017-08-10T12:39:38.868Z,18.3
2017-08-10T12:40:46.370Z,18.1
2017-08-10T12:41:53.864Z,18.1
2017-08-10T12:43:01.339Z,18.2
2017-08-10T12:44:08.819Z,18.2
2017-08-10T12:45:15.981Z,18.1
2017-08-10T12:46:23.812Z,18
2017-08-10T12:47:30.958Z,17.9
2017-08-10T12:48:38.436Z,17.9
2017-08-10T12:49:45.942Z,17.9
2017-08-10T12:50:53.433Z,18
2017-08-10T12:52:01.146Z,18.1
2017-08-10T12:53:08.629Z,18.2
2017-08-10T12:54:16.108Z,18.3
2017-08-10T12:55:23.258Z,18.3
2017-08-10T12:56:31.091Z,18.3
2017-08-10T12:57:38.574Z,18.4
2017-08-10T12:58:46.068Z,18.5
2017-08-10T12:59:53.552Z,18.6
2017-08-10T13:01:01.033Z,18.4
2017-08-10T13:02:09.084Z,18.3
2017-08-10T13:03:16.571Z,18.2
2017-08-10T13:04:24.045Z,18.3
2017-08-10T13:05:31.531Z,18.3
2017-08-10T13:06:39.012Z,18.3
2017-08-10T13:07:46.794Z,18.4
2017-08-10T13:08:54.289Z,18.5
2017-08-10T13:10:01.776Z,18.5
2017-08-10T13:11:08.927Z,18.4
2017-08-10T13:12:16.406Z,18.4
2017-08-10T13:13:24.191Z,18.3
2017-08-10T13:14:31.674Z,18.3
2017-08-10T13:15:39.151Z,18.3
2017-08-10T13:16:46.639Z,18.3
2017-08-10T13:17:53.791Z,18.3
2017-08-10T13:19:01.567Z,18.2
2017-08-10T13:20:08.718Z,18.2
2017-08-10T13:21:16.193Z,18.2
2017-08-10T13:22:23.676Z,18.2
2017-08-10T13:23:30.822Z,18.1
2017-08-10T13:24:38.605Z,18.1
2017-08-10T13:25:45.987Z,18.1
2017-08-10T13:26:53.502Z,18.1
2017-08-10T13:28:00.990Z,18.2
2017-08-10T13:29:08.473Z,18.2
2017-08-10T13:30:16.308Z,18.2
2017-08-10T13:31:23.787Z,18.3
2017-08-10T13:32:31.267Z,18.2
2017-08-10T13:33:38.747Z,18.3
2017-08-10T13:34:46.228Z,18.2
2017-08-10T13:35:53.703Z,18.1
2017-08-10T13:37:01.490Z,18.1
2017-08-10T13:38:09.029Z,18.1
2017-08-10T13:39:16.196Z,18.1
2017-08-10T13:40:23.680Z,18
2017-08-10T13:41:31.170Z,18
2017-08-10T13:42:38.951Z,18
2017-08-10T13:43:46.440Z,18
2017-08-10T13:44:53.927Z,18
2017-08-10T13:46:01.411Z,18.1
2017-08-10T13:47:08.560Z,18.1
2017-08-10T13:48:16.043Z,18.2
2017-08-10T13:49:23.520Z,18.3
2017-08-10T13:50:31.023Z,18.3
2017-08-10T13:51:38.522Z,18.4
2017-08-10T13:52:46.016Z,18.3
2017-08-10T13:53:54.788Z,18.4
2017-08-10T13:55:02.264Z,18.3
2017-08-10T13:56:09.746Z,18.3
2017-08-10T13:57:17.231Z,18.3
2017-08-10T13:58:24.704Z,18.2
2017-08-10T13:59:32.748Z,18.3
2017-08-10T14:00:40.220Z,18.3
2017-08-10T14:01:47.697Z,18.4
2017-08-10T14:02:55.190Z,18.4
2017-08-10T14:04:02.669Z,18.4
2017-08-10T14:05:10.449Z,18.4
2017-08-10T14:06:18.528Z,18.3
2017-08-10T14:07:26.229Z,18.3
2017-08-10T14:08:33.706Z,18.3
2017-08-10T14:09:41.183Z,18.3
2017-08-10T14:10:48.964Z,18.2
2017-08-10T14:11:56.462Z,18.2
2017-08-10T14:13:03.944Z,18.2
2017-08-10T14:14:11.428Z,18.1
2017-08-10T14:15:18.909Z,18.1
2017-08-10T14:16:26.382Z,18.1
2017-08-10T14:17:33.859Z,18.1
2017-08-10T14:18:41.223Z,18
2017-08-10T14:19:48.702Z,18.1
2017-08-10T14:20:55.858Z,18
2017-08-10T14:22:03.638Z,18
2017-08-10T14:23:11.117Z,18
2017-08-10T14:24:18.266Z,18
2017-08-10T14:25:25.753Z,18
2017-08-10T14:26:33.228Z,18
2017-08-10T14:27:40.678Z,18
2017-08-10T14:28:48.163Z,18.1
2017-08-10T14:29:55.652Z,18.1
2017-08-10T14:31:03.130Z,18.2
2017-08-10T14:32:10.616Z,18.1
2017-08-10T14:33:18.399Z,18.1
2017-08-10T14:34:25.882Z,18.1
2017-08-10T14:35:33.365Z,18.1
2017-08-10T14:36:40.846Z,18
2017-08-10T14:37:48.327Z,17.9
2017-08-10T14:38:56.135Z,17.9
2017-08-10T14:40:03.647Z,18
2017-08-10T14:41:10.798Z,18
2017-08-10T14:42:18.281Z,18.1
2017-08-10T14:43:25.760Z,18.2
2017-08-10T14:44:33.594Z,18.2
2017-08-10T14:45:41.081Z,18.2
2017-08-10T14:46:48.587Z,18.1
2017-08-10T14:47:55.702Z,18.1
2017-08-10T14:49:03.184Z,18
2017-08-10T14:50:10.667Z,18
2017-08-10T14:51:17.812Z,18
2017-08-10T14:52:24.961Z,18
2017-08-10T14:53:32.498Z,18
2017-08-10T14:54:39.982Z,18.1
2017-08-10T14:55:47.812Z,18
2017-08-10T14:56:55.297Z,18
2017-08-10T14:58:02.781Z,18
2017-08-10T14:59:10.280Z,17.9
2017-08-10T15:00:17.767Z,17.9
2017-08-10T15:01:25.601Z,18
2017-08-10T15:02:32.755Z,18.1
2017-08-10T15:03:40.239Z,18.1
2017-08-10T15:04:47.400Z,18.2
2017-08-10T15:05:54.898Z,18.2